Time;durP1;ratioP1;P1;durP2;ratioP2;P2;SDS_P1;SDS_P2;PMS_P1;PMS_P2;Temp;Humidity;BMP_temperature;BMP_pressure;BME280_temperature;BME280_humidity;BME280_pressure;Samples;Min_cycle;Max_cycle;Signal;HPM_P1;HPM_P2
2023/10/27 00:01:22;;;;;;;;;;;;;;;10.09;100.00;98753.06;5032987;28;19971;-74
2023/10/27 00:03:49;;;;;;;;;;;;;;;10.08;100.00;98746.94;5050818;28;19975;-73
2023/10/27 00:06:17;;;;;;;;;;;;;;;10.08;100.00;98748.75;5044406;28;20355;-71
2023/10/27 00:08:44;;;;;;;;;;;;;;;10.03;100.00;98749.16;5062810;28;19927;-71
2023/10/27 00:11:11;;;;;;;;;;;;;;;10.00;100.00;98749.44;5067697;28;20008;-70
2023/10/27 00:13:39;;;;;;;;;;;;;;;10.01;100.00;98747.63;5063880;28;20271;-72
2023/10/27 00:16:06;;;;;;;;;;;;;;;10.02;100.00;98746.66;5062441;28;19943;-70
2023/10/27 00:18:33;;;;;;;;;;;;;;;10.01;100.00;98748.47;5049222;28;19955;-70
2023/10/27 00:21:00;;;;;;;;;;;;;;;10.01;100.00;98735.31;5051027;28;19951;-72
2023/10/27 00:23:28;;;;;;;;;;;;;;;10.00;100.00;98736.28;5066258;28;20371;-71
2023/10/27 00:25:54;;;;;;;;;;;;;;;9.99;100.00;98728.50;5050073;28;20013;-73
2023/10/27 00:28:21;;;;;;;;;;;;;;;9.99;100.00;98742.47;5046422;28;20079;-74
2023/10/27 00:30:48;;;;;;;;;;;;;;;9.99;100.00;98739.03;5052623;28;20127;-72
2023/10/27 00:33:16;;;;;;;;;;;;;;;9.96;100.00;98734.88;5050215;28;19999;-73
2023/10/27 00:35:43;;;;;;;;;;;;;;;9.98;100.00;98732.13;5019153;28;19946;-73
2023/10/27 00:38:10;;;;;;;;;;;;;;;9.96;100.00;98727.00;5068687;28;19964;-73
2023/10/27 00:40:37;;;;;;;;;;;;;;;9.92;100.00;98722.97;5048338;28;20203;-71
2023/10/27 00:43:05;;;;;;;;;;;;;;;9.91;100.00;98721.31;5070416;28;19928;-72
2023/10/27 00:45:33;;;;;;;;;;;;;;;9.92;100.00;98717.72;5049664;28;20158;-73
2023/10/27 00:48:00;;;;;;;;;;;;;;;9.91;100.00;98723.94;5051329;28;19942;-72
2023/10/27 00:50:27;;;;;;;;;;;;;;;9.90;100.00;98709.94;5064193;28;19925;-72
2023/10/27 00:52:54;;;;;;;;;;;;;;;9.91;100.00;98705.53;5032677;28;19948;-74
2023/10/27 00:55:22;;;;;;;;;;;;;;;9.88;100.00;98701.38;5046166;28;19924;-74
2023/10/27 00:57:49;;;;;;;;;;;;;;;9.86;100.00;98703.31;5032557;28;20240;-72
2023/10/27 01:00:16;;;;;;;;;;;;;;;9.88;100.00;98700.53;5031693;28;19963;-73
2023/10/27 01:02:43;;;;;;;;;;;;;;;9.89;100.00;98703.03;5044786;28;20852;-73
2023/10/27 01:05:10;;;;;;;;;;;;;;;9.88;100.00;98697.91;5030730;28;19986;-73
2023/10/27 01:07:38;;;;;;;;;;;;;;;9.84;100.00;98699.13;5068495;28;20015;-72
2023/10/27 01:10:05;;;;;;;;;;;;;;;9.85;100.00;98704.25;5028608;28;19925;-73
2023/10/27 01:12:33;;;;;;;;;;;;;;;9.87;100.00;98704.16;5051273;28;19920;-73
2023/10/27 01:15:00;;;;;;;;;;;;;;;9.86;100.00;98699.81;5050261;28;19966;-72
2023/10/27 01:17:27;;;;;;;;;;;;;;;9.86;100.00;98699.81;5049878;28;20311;-72
2023/10/27 01:19:54;;;;;;;;;;;;;;;9.87;100.00;98693.63;5056409;28;19946;-74
2023/10/27 01:22:22;;;;;;;;;;;;;;;9.86;100.00;98686.69;5069719;28;19966;-73
2023/10/27 01:24:50;;;;;;;;;;;;;;;9.83;100.00;98690.44;5065945;28;20494;-73
2023/10/27 01:27:17;;;;;;;;;;;;;;;9.78;100.00;98691.78;5049147;28;19924;-73
2023/10/27 01:29:44;;;;;;;;;;;;;;;9.78;100.00;98689.16;5031206;28;20202;-73
2023/10/27 01:32:12;;;;;;;;;;;;;;;9.79;100.00;98682.94;5036162;28;19969;-74
2023/10/27 01:34:39;;;;;;;;;;;;;;;9.78;100.00;98687.38;5028467;28;20017;-74
2023/10/27 01:37:06;;;;;;;;;;;;;;;9.78;100.00;98690.00;5050429;28;19999;-72
2023/10/27 01:39:33;;;;;;;;;;;;;;;9.80;100.00;98684.59;5068461;28;21213;-73
2023/10/27 01:42:00;;;;;;;;;;;;;;;9.80;100.00;98674.09;5049746;28;20013;-73
2023/10/27 01:44:27;;;;;;;;;;;;;;;9.80;100.00;98674.09;5046758;28;19951;-73
2023/10/27 01:46:54;;;;;;;;;;;;;;;9.77;100.00;98671.72;5052942;28;20322;-77
2023/10/27 01:49:21;;;;;;;;;;;;;;;9.78;100.00;98668.16;5053837;28;19963;-76
2023/10/27 01:51:48;;;;;;;;;;;;;;;9.80;100.00;98661.78;5058032;28;19920;-75
2023/10/27 01:54:15;;;;;;;;;;;;;;;9.79;100.00;98661.91;5049408;28;19951;-72
2023/10/27 01:56:42;;;;;;;;;;;;;;;9.79;100.00;98664.53;5046148;28;19921;-73
2023/10/27 01:59:09;;;;;;;;;;;;;;;9.78;100.00;98653.22;5069571;28;19931;-73
2023/10/27 02:01:37;;;;;;;;;;;;;;;9.78;100.00;98661.09;5022962;28;19920;-73
2023/10/27 02:04:04;;;;;;;;;;;;;;;9.76;100.00;98660.38;5035525;28;20374;-76
2023/10/27 02:06:31;;;;;;;;;;;;;;;9.76;100.00;98657.75;5031694;28;19925;-75
2023/10/27 02:08:58;;;;;;;;;;;;;;;9.76;100.00;98660.38;5068162;28;19932;-74
2023/10/27 02:11:26;;;;;;;;;;;;;;;9.76;100.00;98662.19;5041192;28;19920;-73
2023/10/27 02:13:54;;;;;;;;;;;;;;;9.76;100.00;98662.19;5030826;28;19921;-74
2023/10/27 02:16:21;;;;;;;;;;;;;;;9.75;100.00;98663.97;5050020;28;19925;-73
2023/10/27 02:18:48;;;;;;;;;;;;;;;9.75;100.00;98665.78;5061228;28;20387;-73
2023/10/27 02:21:15;;;;;;;;;;;;;;;9.74;100.00;98658.88;5047174;28;19924;-73
2023/10/27 02:23:42;;;;;;;;;;;;;;;9.72;100.00;98661.59;5048556;28;19991;-73
2023/10/27 02:26:09;;;;;;;;;;;;;;;9.74;100.00;98664.94;5048447;28;20295;-73
2023/10/27 02:28:37;;;;;;;;;;;;;;;9.75;100.00;98657.91;5034344;28;19970;-73
2023/10/27 02:31:04;;;;;;;;;;;;;;;9.74;100.00;98657.06;5047601;28;19925;-72
2023/10/27 02:33:31;;;;;;;;;;;;;;;9.77;100.00;98655.94;5070599;28;19925;-73
2023/10/27 02:35:58;;;;;;;;;;;;;;;9.76;100.00;98660.38;5067018;28;19959;-72
2023/10/27 02:38:25;;;;;;;;;;;;;;;9.77;100.00;98661.22;5047748;28;19932;-73
2023/10/27 02:40:52;;;;;;;;;;;;;;;9.78;100.00;98662.91;5051189;28;19920;-82
2023/10/27 02:43:19;;;;;;;;;;;;;;;9.77;100.00;98664.69;5038315;28;19921;-76
2023/10/27 02:45:47;;;;;;;;;;;;;;;9.78;100.00;98668.16;5035543;28;19970;-77
2023/10/27 02:48:14;;;;;;;;;;;;;;;9.80;100.00;98671.47;5048226;28;19921;-78
2023/10/27 02:50:41;;;;;;;;;;;;;;;9.79;100.00;98675.06;5079348;28;19975;-78
2023/10/27 02:53:09;;;;;;;;;;;;;;;9.80;100.00;98680.16;5075889;28;19958;-78
2023/10/27 02:55:36;;;;;;;;;;;;;;;9.81;100.00;98683.63;5051190;28;19962;-77
2023/10/27 02:58:03;;;;;;;;;;;;;;;9.81;100.00;98679.19;5053030;28;20433;-78
2023/10/27 03:00:31;;;;;;;;;;;;;;;9.83;100.00;98686.97;5053226;28;20081;-79
2023/10/27 03:02:58;;;;;;;;;;;;;;;9.84;100.00;98678.13;5050891;28;20337;-78
2023/10/27 03:05:25;;;;;;;;;;;;;;;9.82;100.00;98685.31;5070058;28;19920;-78
2023/10/27 03:07:52;;;;;;;;;;;;;;;9.78;100.00;98690.00;5064995;28;19920;-78
2023/10/27 03:10:20;;;;;;;;;;;;;;;9.81;100.00;98683.63;5067255;28;19920;-77
2023/10/27 03:12:47;;;;;;;;;;;;;;;9.81;100.00;98678.38;5049664;28;20396;-78
2023/10/27 03:15:14;;;;;;;;;;;;;;;9.79;100.00;98686.41;5065675;28;20368;-71
2023/10/27 03:17:41;;;;;;;;;;;;;;;9.79;100.00;98680.31;5070753;28;19955;-72
2023/10/27 03:20:08;;;;;;;;;;;;;;;9.80;100.00;98684.59;5050774;28;19921;-71
2023/10/27 03:22:36;;;;;;;;;;;;;;;9.78;100.00;98681.28;5068562;28;19920;-71
2023/10/27 03:25:03;;;;;;;;;;;;;;;9.76;100.00;98680.56;5064884;28;19921;-71
2023/10/27 03:27:32;;;;;;;;;;;;;;;9.76;100.00;98684.03;5047518;28;19920;-81
2023/10/27 03:29:59;;;;;;;;;;;;;;;9.77;100.00;98680.47;5053368;28;19954;-73
2023/10/27 03:32:28;;;;;;;;;;;;;;;9.75;100.00;98677.13;5045771;28;19921;-73
2023/10/27 03:34:55;;;;;;;;;;;;;;;9.76;100.00;98675.31;5058768;28;19924;-73
2023/10/27 03:37:22;;;;;;;;;;;;;;;9.77;100.00;98674.34;5050102;28;19967;-72
2023/10/27 03:39:51;;;;;;;;;;;;;;;9.75;100.00;98679.75;5078330;28;19951;-74
2023/10/27 03:42:18;;;;;;;;;;;;;;;9.77;100.00;98676.97;5026295;28;20283;-74
2023/10/27 03:44:45;;;;;;;;;;;;;;;9.77;100.00;98679.59;5055859;28;19921;-74
2023/10/27 03:47:12;;;;;;;;;;;;;;;9.75;100.00;98678.91;5050335;28;19925;-71
2023/10/27 03:49:39;;;;;;;;;;;;;;;9.75;100.00;98668.41;5065225;28;19999;-72
2023/10/27 03:52:09;;;;;;;;;;;;;;;9.76;100.00;98680.56;5032298;28;20139;-71
2023/10/27 03:54:37;;;;;;;;;;;;;;;9.75;100.00;98674.50;5050677;28;19985;-72
2023/10/27 03:57:04;;;;;;;;;;;;;;;9.75;100.00;98669.22;5053099;28;19920;-74
2023/10/27 03:59:31;;;;;;;;;;;;;;;9.75;100.00;98668.41;5054562;28;20403;-72
2023/10/27 04:01:58;;;;;;;;;;;;;;;9.73;100.00;98668.53;5061124;28;20367;-72
2023/10/27 04:04:25;;;;;;;;;;;;;;;9.74;100.00;98670.19;5067042;28;19928;-72
2023/10/27 04:06:54;;;;;;;;;;;;;;;9.68;100.00;98669.88;5048630;28;19927;-72
2023/10/27 04:09:21;;;;;;;;;;;;;;;9.71;100.00;98661.75;5046036;28;20244;-72
2023/10/27 04:11:50;;;;;;;;;;;;;;;9.71;100.00;98657.31;5073644;28;20389;-73
2023/10/27 04:14:17;;;;;;;;;;;;;;;9.72;100.00;98655.53;5070439;28;20294;-72
2023/10/27 04:16:48;;;;;;;;;;;;;;;9.75;100.00;98658.72;5052169;28;19921;-76
2023/10/27 04:19:15;;;;;;;;;;;;;;;9.75;100.00;98657.91;5055100;28;19947;-74
2023/10/27 04:21:42;;;;;;;;;;;;;;;9.73;100.00;98660.66;5067615;28;19924;-76
2023/10/27 04:24:10;;;;;;;;;;;;;;;9.73;100.00;98663.28;5053669;28;20023;-76
2023/10/27 04:26:38;;;;;;;;;;;;;;;9.73;100.00;98665.09;5069847;28;20383;-75
2023/10/27 04:29:06;;;;;;;;;;;;;;;9.73;100.00;98665.09;5049210;28;19921;-73
2023/10/27 04:31:33;;;;;;;;;;;;;;;9.73;100.00;98659.84;5031492;28;19924;-75
2023/10/27 04:34:01;;;;;;;;;;;;;;;9.70;100.00;98660.09;5033310;28;19932;-74
2023/10/27 04:36:29;;;;;;;;;;;;;;;9.68;100.00;98657.59;5031355;28;19959;-74
2023/10/27 04:38:56;;;;;;;;;;;;;;;9.74;100.00;98656.25;5065871;28;20334;-75
2023/10/27 04:41:24;;;;;;;;;;;;;;;9.77;100.00;98659.44;5031718;28;19928;-74
2023/10/27 04:43:51;;;;;;;;;;;;;;;9.77;100.00;98655.94;5046266;28;20343;-75
2023/10/27 04:46:18;;;;;;;;;;;;;;;9.77;100.00;98656.81;5032857;28;19974;-73
2023/10/27 04:48:45;;;;;;;;;;;;;;;9.73;100.00;98649.31;5068690;28;19950;-75
2023/10/27 04:51:12;;;;;;;;;;;;;;;9.64;100.00;98649.16;5062700;28;20117;-76
2023/10/27 04:53:40;;;;;;;;;;;;;;;9.67;100.00;98644.59;5060632;28;19920;-74
2023/10/27 04:56:07;;;;;;;;;;;;;;;9.67;100.00;98644.59;5041522;28;20007;-72
2023/10/27 04:58:34;;;;;;;;;;;;;;;9.65;100.00;98644.72;5049510;28;19924;-77
2023/10/27 05:01:02;;;;;;;;;;;;;;;9.66;100.00;98642.94;5051282;28;19983;-75
2023/10/27 05:03:30;;;;;;;;;;;;;;;9.68;100.00;98640.97;5041928;28;19921;-72
2023/10/27 05:06:05;;;;;;;;;;;;;;;9.67;100.00;98636.69;5033105;28;19940;-70
2023/10/27 05:08:32;;;;;;;;;;;;;;;9.65;100.00;98642.09;5033295;28;19977;-71
2023/10/27 06:12:27;;;;;;;;;;;;;;;9.61;100.00;98638.91;5099106;22;19927;-62
2023/10/27 06:14:54;;;;;;;;;;;;;;;9.63;100.00;98639.59;5036759;28;20007;-62
2023/10/27 06:17:21;;;;;;;;;;;;;;;9.66;100.00;98642.94;5043230;28;19924;-63
2023/10/27 06:19:48;;;;;;;;;;;;;;;9.69;100.00;98642.66;5063298;28;19943;-64
2023/10/27 06:22:35;;;;;;;;;;;;;;;9.70;100.00;98628.56;5053884;28;19927;-62
2023/10/27 06:25:03;;;;;;;;;;;;;;;9.71;100.00;98640.72;5059018;28;20003;-64
2023/10/27 06:27:30;;;;;;;;;;;;;;;9.70;100.00;98641.69;5058985;28;20019;-63
2023/10/27 06:29:57;;;;;;;;;;;;;;;9.70;100.00;98654.84;5040227;28;19947;-64
2023/10/27 06:32:24;;;;;;;;;;;;;;;9.71;100.00;98651.25;5054513;28;20459;-63
2023/10/27 06:34:51;;;;;;;;;;;;;;;9.68;100.00;98654.97;5052094;28;19991;-62
2023/10/27 06:37:19;;;;;;;;;;;;;;;9.69;100.00;98656.63;5052199;28;20012;-62
2023/10/27 06:39:46;;;;;;;;;;;;;;;9.69;100.00;98659.25;5035100;28;19928;-61
2023/10/27 06:42:13;;;;;;;;;;;;;;;9.70;100.00;98660.09;5052501;28;20008;-60
2023/10/27 06:44:40;;;;;;;;;;;;;;;9.71;100.00;98664.38;5046883;28;20469;-62
2023/10/27 06:47:07;;;;;;;;;;;;;;;9.67;100.00;98663.81;5040452;28;19956;-59
2023/10/27 06:49:34;;;;;;;;;;;;;;;9.70;100.00;98671.44;5032543;28;19920;-63
2023/10/27 06:52:01;;;;;;;;;;;;;;;9.73;100.00;98672.97;5053654;28;19986;-62
2023/10/27 06:54:29;;;;;;;;;;;;;;;9.71;100.00;98678.34;5044595;28;19921;-60
2023/10/27 06:56:56;;;;;;;;;;;;;;;9.72;100.00;98673.91;5044111;28;19920;-63
2023/10/27 06:59:23;;;;;;;;;;;;;;;9.75;100.00;98686.81;5045298;28;19971;-62
2023/10/27 07:01:52;;;;;;;;;;;;;;;9.78;100.00;98687.38;5031741;28;19924;-62
2023/10/27 07:04:19;;;;;;;;;;;;;;;9.82;100.00;98683.50;5050607;28;19921;-60
2023/10/27 07:06:46;;;;;;;;;;;;;;;9.84;100.00;98684.19;5051591;28;19928;-62
2023/10/27 07:09:13;;;;;;;;;;;;;;;9.87;100.00;98685.75;5036960;28;19956;-63
2023/10/27 07:11:40;;;;;;;;;;;;;;;9.90;100.00;98691.53;5049665;28;19920;-63
2023/10/27 07:14:08;;;;;;;;;;;;;;;9.92;100.00;98694.06;5048655;28;19921;-63
2023/10/27 07:16:36;;;;;;;;;;;;;;;9.95;100.00;98690.31;5048907;28;20382;-62
2023/10/27 07:19:03;;;;;;;;;;;;;;;10.00;100.00;98698.66;5048129;28;20802;-62
2023/10/27 07:21:30;;;;;;;;;;;;;;;10.04;100.00;98694.75;5045477;28;19975;-63
2023/10/27 07:23:57;;;;;;;;;;;;;;;10.05;100.00;98693.81;5048268;28;19944;-62
2023/10/27 07:26:24;;;;;;;;;;;;;;;10.06;100.00;98709.44;5050210;28;19950;-61
2023/10/27 07:28:51;;;;;;;;;;;;;;;10.09;100.00;98703.09;5051211;28;20120;-64
2023/10/27 07:31:18;;;;;;;;;;;;;;;10.07;100.00;98705.84;5050714;28;20016;-63
2023/10/27 07:33:45;;;;;;;;;;;;;;;10.02;100.00;98705.44;5043166;28;19920;-61
2023/10/27 07:36:13;;;;;;;;;;;;;;;10.05;100.00;98701.72;5043296;28;20014;-62
2023/10/27 07:38:40;;;;;;;;;;;;;;;10.04;100.00;98700.03;5048063;28;20335;-62
2023/10/27 07:41:08;;;;;;;;;;;;;;;10.06;100.00;98696.31;5048713;28;19991;-58
2023/10/27 07:43:37;;;;;;;;;;;;;;;10.07;100.00;98699.75;5049190;28;19955;-62
2023/10/27 07:46:04;;;;;;;;;;;;;;;10.06;100.00;98698.94;5039400;28;19929;-62
2023/10/27 07:48:32;;;;;;;;;;;;;;;10.12;100.00;98698.38;5043019;28;19979;-63
2023/10/27 07:50:59;;;;;;;;;;;;;;;10.13;100.00;98691.34;5049211;28;19924;-64
2023/10/27 07:53:26;;;;;;;;;;;;;;;10.15;100.00;98694.66;5032935;28;19964;-63
2023/10/27 07:55:54;;;;;;;;;;;;;;;10.15;100.00;98687.63;5051617;28;20364;-62
2023/10/27 07:58:21;;;;;;;;;;;;;;;10.14;100.00;98693.84;5049706;28;20007;-63
2023/10/27 08:00:49;;;;;;;;;;;;;;;10.14;100.00;98693.00;5050528;28;19968;-62
2023/10/27 08:03:16;;;;;;;;;;;;;;;10.17;100.00;98690.09;5068486;28;19909;-62
2023/10/27 08:05:43;;;;;;;;;;;;;;;10.21;100.00;98696.75;5066294;28;19920;-62
2023/10/27 08:08:10;;;;;;;;;;;;;;;10.23;100.00;98694.00;5078064;28;19909;-63
2023/10/27 08:10:38;;;;;;;;;;;;;;;10.24;100.00;98699.16;5057693;28;20016;-63
2023/10/27 08:13:08;;;;;;;;;;;;;;;10.27;100.00;98688.38;5052563;28;20023;-63
2023/10/27 08:15:35;;;;;;;;;;;;;;;10.26;100.00;98688.50;5031476;28;20384;-62
2023/10/27 08:18:02;;;;;;;;;;;;;;;10.30;100.00;98682.00;5048023;28;20396;-64
2023/10/27 08:20:29;;;;;;;;;;;;;;;10.33;100.00;98672.03;5034642;28;20029;-63
2023/10/27 08:22:57;;;;;;;;;;;;;;;10.28;100.00;98674.25;5050595;28;19924;-62
2023/10/27 08:25:24;;;;;;;;;;;;;;;10.30;100.00;98679.34;5053410;28;19955;-63
2023/10/27 08:27:51;;;;;;;;;;;;;;;10.31;100.00;98674.00;5051075;28;19956;-61
2023/10/27 08:30:18;;;;;;;;;;;;;;;10.34;100.00;98670.22;5050392;28;19921;-62
2023/10/27 08:32:45;;;;;;;;;;;;;;;10.35;100.00;98664.81;5049718;28;19974;-63
2023/10/27 08:35:12;;;;;;;;;;;;;;;10.34;100.00;98667.59;5048205;28;19920;-61
2023/10/27 08:37:40;;;;;;;;;;;;;;;10.34;100.00;98676.31;5050121;28;20016;-62
2023/10/27 08:40:11;;;;;;;;;;;;;;;10.37;100.00;98667.34;5033032;28;19931;-62
2023/10/27 08:42:42;;;;;;;;;;;;;;;10.38;100.00;98676.88;5036371;28;19960;-63
2023/10/27 08:45:09;;;;;;;;;;;;;;;10.39;100.00;98679.38;5055943;28;19964;-62
2023/10/27 08:47:36;;;;;;;;;;;;;;;10.42;100.00;98675.66;5045452;28;20019;-64
2023/10/27 08:50:04;;;;;;;;;;;;;;;10.39;100.00;98676.75;5050295;28;19928;-63
2023/10/27 08:52:31;;;;;;;;;;;;;;;10.38;100.00;98676.88;5050627;28;19956;-63
2023/10/27 08:55:00;;;;;;;;;;;;;;;10.39;100.00;98681.16;5053858;28;19943;-63
2023/10/27 08:57:27;;;;;;;;;;;;;;;10.43;100.00;98685.19;5030504;28;19993;-62
2023/10/27 08:59:54;;;;;;;;;;;;;;;10.44;100.00;98688.66;5037045;28;20346;-64
2023/10/27 09:02:31;;;;;;;;;;;;;;;10.45;100.00;98682.44;5051583;28;19921;-62
2023/10/27 09:05:06;;;;;;;;;;;;;;;10.43;100.00;98676.47;5055692;28;19936;-62
2023/10/27 09:07:34;;;;;;;;;;;;;;;10.45;100.00;98671.94;5050665;28;20614;-63
2023/10/27 09:10:02;;;;;;;;;;;;;;;10.53;100.00;98682.56;5031526;28;20544;-64
2023/10/27 09:12:30;;;;;;;;;;;;;;;10.57;100.00;98683.97;5050371;28;19920;-62
2023/10/27 09:14:58;;;;;;;;;;;;;;;10.56;100.00;98677.03;5048237;28;19967;-63
2023/10/27 09:17:25;;;;;;;;;;;;;;;10.59;100.00;98679.41;5046108;28;20007;-63
2023/10/27 09:20:09;;;;;;;;;;;;;;;10.57;100.00;98673.44;5028911;28;19929;-63
2023/10/27 09:22:36;;;;;;;;;;;;;;;10.58;100.00;98675.09;5049863;28;20012;-63
2023/10/27 09:25:15;;;;;;;;;;;;;;;10.53;100.00;98678.13;5049608;28;19955;-63
2023/10/27 09:27:45;;;;;;;;;;;;;;;10.58;100.00;98678.56;5049504;28;19963;-63
2023/10/27 09:30:13;;;;;;;;;;;;;;;10.59;100.00;98674.97;5047307;28;20008;-63
2023/10/27 09:32:42;;;;;;;;;;;;;;;10.63;100.00;98680.78;5049288;28;20012;-63
2023/10/27 09:35:13;;;;;;;;;;;;;;;10.64;100.00;98679.81;5047032;28;19999;-63
2023/10/27 09:37:42;;;;;;;;;;;;;;;10.67;100.00;98686.59;5042872;28;20572;-63
2023/10/27 09:40:11;;;;;;;;;;;;;;;10.70;100.00;98681.88;5049117;28;19924;-63
2023/10/27 09:42:39;;;;;;;;;;;;;;;10.70;100.00;98687.16;5050095;28;19948;-63
2023/10/27 09:45:07;;;;;;;;;;;;;;;10.71;100.00;98685.34;5048891;28;19976;-63
2023/10/27 09:47:34;;;;;;;;;;;;;;;10.72;100.00;98681.75;5052008;28;20426;-64
2023/10/27 09:50:06;;;;;;;;;;;;;;;10.74;100.00;98680.66;5049421;28;19975;-63
2023/10/27 09:52:33;;;;;;;;;;;;;;;10.79;100.00;98691.59;5048846;28;19959;-64
2023/10/27 09:55:01;;;;;;;;;;;;;;;10.79;100.00;98690.75;5046998;28;20015;-62
2023/10/27 09:57:44;;;;;;;;;;;;;;;10.77;100.00;98684.81;5045121;28;20346;-64
2023/10/27 10:00:13;;;;;;;;;;;;;;;10.85;100.00;98679.66;5049935;28;20504;-63
2023/10/27 10:02:44;;;;;;;;;;;;;;;10.86;100.00;98676.91;5043721;28;19921;-63
2023/10/27 10:05:11;;;;;;;;;;;;;;;10.97;100.00;98677.72;5046153;28;19921;-62
2023/10/27 10:07:42;;;;;;;;;;;;;;;11.01;100.00;98684.38;5049321;28;20007;-63
2023/10/27 10:10:35;;;;;;;;;;;;;;;11.03;100.00;98682.41;5050009;28;19968;-63
2023/10/27 10:13:12;;;;;;;;;;;;;;;10.98;100.00;98682.00;5050718;28;20425;-63
2023/10/27 10:15:39;;;;;;;;;;;;;;;10.96;100.00;98682.16;5038944;28;19966;-63
2023/10/27 10:18:07;;;;;;;;;;;;;;;10.97;100.00;98672.44;5046651;28;20011;-63
2023/10/27 10:21:17;;;;;;;;;;;;;;;10.94;100.00;98670.91;5048360;28;19999;-62
2023/10/27 10:23:40;;;;;;;;;;;;;;;10.91;100.00;98668.59;5048262;28;19959;-63
2023/10/27 10:26:07;;;;;;;;;;;;;;;10.94;100.00;98662.19;5047831;28;19956;-63
2023/10/27 10:28:34;;;;;;;;;;;;;;;10.91;100.00;98652.78;5046616;28;20121;-63
2023/10/27 10:31:04;;;;;;;;;;;;;;;10.92;100.00;98656.25;5050313;28;20022;-63
2023/10/27 10:33:31;;;;;;;;;;;;;;;11.01;100.00;98660.66;5051964;28;19951;-63
2023/10/27 10:36:24;;;;;;;;;;;;;;;11.02;100.00;98650.00;5033912;28;19986;-63
2023/10/27 10:39:04;;;;;;;;;;;;;;;11.01;100.00;98658.88;5046889;28;19933;-63
2023/10/27 10:41:53;;;;;;;;;;;;;;;11.00;100.00;98651.94;5050171;28;19921;-63
2023/10/27 10:44:20;;;;;;;;;;;;;;;11.06;100.00;98655.81;5043724;28;19982;-65
2023/10/27 10:46:49;;;;;;;;;;;;;;;11.06;100.00;98659.25;5031378;28;20102;-63
2023/10/27 10:49:23;;;;;;;;;;;;;;;11.11;100.00;98654.41;5048537;28;19964;-63
2023/10/27 10:51:51;;;;;;;;;;;;;;;11.09;100.00;98660.81;5047869;28;20019;-63
2023/10/27 10:54:18;;;;;;;;;;;;;;;11.07;100.00;98652.19;5046144;28;20349;-63
2023/10/27 10:56:45;;;;;;;;;;;;;;;11.13;100.00;98655.09;5048677;28;19975;-62
2023/10/27 10:59:19;;;;;;;;;;;;;;;11.16;100.00;98653.97;5028987;28;20011;-63
2023/10/27 11:01:46;;;;;;;;;;;;;;;11.18;100.00;98653.84;5053606;28;19921;-62
2023/10/27 11:04:13;;;;;;;;;;;;;;;11.12;100.00;98647.31;5037479;28;19943;-62
2023/10/27 11:06:41;;;;;;;;;;;;;;;11.08;100.00;98651.25;5038159;28;20307;-63
2023/10/27 11:09:08;;;;;;;;;;;;;;;11.14;100.00;98638.31;5049800;28;20395;-63
2023/10/27 11:11:35;;;;;;;;;;;;;;;11.11;100.00;98649.13;5060829;28;20683;-62
2023/10/27 11:14:14;;;;;;;;;;;;;;;11.12;100.00;98642.06;5043233;28;19952;-62
2023/10/27 11:16:41;;;;;;;;;;;;;;;11.08;100.00;98645.97;5052341;28;19968;-62
2023/10/27 11:19:15;;;;;;;;;;;;;;;11.03;100.00;98646.41;5049751;28;19952;-62
2023/10/27 11:21:42;;;;;;;;;;;;;;;11.03;100.00;98645.53;5049587;28;19975;-63
2023/10/27 11:24:10;;;;;;;;;;;;;;;11.04;100.00;98653.31;5051096;28;20421;-63
2023/10/27 11:26:41;;;;;;;;;;;;;;;10.99;100.00;98649.47;5055938;28;19921;-63
2023/10/27 11:29:09;;;;;;;;;;;;;;;10.96;100.00;98650.56;5060574;28;20345;-63
2023/10/27 11:31:40;;;;;;;;;;;;;;;10.99;100.00;98655.56;5055340;28;20455;-64
2023/10/27 11:34:07;;;;;;;;;;;;;;;11.00;100.00;98653.75;5048399;28;20043;-63
2023/10/27 11:36:35;;;;;;;;;;;;;;;11.00;100.00;98657.22;5057408;28;20504;-63
2023/10/27 11:39:21;;;;;;;;;;;;;;;11.00;100.00;98653.75;5051344;28;19964;-63
2023/10/27 11:41:49;;;;;;;;;;;;;;;11.05;100.00;98667.31;5039837;28;19956;-63
2023/10/27 11:44:17;;;;;;;;;;;;;;;11.08;100.00;98664.41;5049582;28;19931;-63
2023/10/27 11:46:44;;;;;;;;;;;;;;;11.14;100.00;98664.66;5037751;28;19924;-62
2023/10/27 11:49:12;;;;;;;;;;;;;;;11.16;100.00;98667.16;5062906;28;19928;-63
2023/10/27 11:51:39;;;;;;;;;;;;;;;11.16;100.00;98662.72;5060050;28;19925;-62
2023/10/27 11:54:06;;;;;;;;;;;;;;;11.17;100.00;98668.84;5060043;28;19959;-62
2023/10/27 11:56:33;;;;;;;;;;;;;;;11.12;100.00;98664.00;5045589;28;19920;-63
2023/10/27 11:59:00;;;;;;;;;;;;;;;11.08;100.00;98662.59;5041046;28;19920;-64
2023/10/27 12:01:27;;;;;;;;;;;;;;;11.05;100.00;98654.97;5048354;28;19924;-63
2023/10/27 12:03:54;;;;;;;;;;;;;;;11.04;100.00;98658.59;5052625;28;20431;-64
2023/10/27 12:06:22;;;;;;;;;;;;;;;11.00;100.00;98656.38;5056377;28;19970;-64
2023/10/27 12:08:49;;;;;;;;;;;;;;;10.98;100.00;98658.31;5055463;28;19963;-62
2023/10/27 12:11:17;;;;;;;;;;;;;;;10.95;100.00;98653.34;5047633;28;19928;-63
2023/10/27 12:13:44;;;;;;;;;;;;;;;10.91;100.00;98663.31;5050169;28;19933;-62
2023/10/27 12:16:13;;;;;;;;;;;;;;;10.85;100.00;98659.47;5049918;28;19929;-62
2023/10/27 12:18:40;;;;;;;;;;;;;;;10.85;100.00;98663.88;5052621;28;19960;-63
2023/10/27 12:21:07;;;;;;;;;;;;;;;10.82;100.00;98659.72;5031611;28;20676;-64
2023/10/27 12:23:34;;;;;;;;;;;;;;;10.82;100.00;98659.72;5046343;28;19975;-63
2023/10/27 12:26:01;;;;;;;;;;;;;;;10.85;100.00;98664.72;5052874;28;20304;-63
2023/10/27 12:28:28;;;;;;;;;;;;;;;10.86;100.00;98665.53;5049604;28;19959;-64
2023/10/27 12:30:58;;;;;;;;;;;;;;;10.83;100.00;98671.91;5031551;28;19963;-64
2023/10/27 12:33:26;;;;;;;;;;;;;;;10.85;100.00;98669.13;5050234;28;19971;-65
2023/10/27 12:35:54;;;;;;;;;;;;;;;10.77;100.00;98667.22;5049021;28;20912;-63
2023/10/27 12:38:22;;;;;;;;;;;;;;;10.78;100.00;98668.03;5047722;28;20530;-63
2023/10/27 12:40:49;;;;;;;;;;;;;;;10.85;100.00;98663.88;5050045;28;19944;-64
2023/10/27 12:43:16;;;;;;;;;;;;;;;10.77;100.00;98667.22;5051395;28;20008;-64
2023/10/27 12:45:43;;;;;;;;;;;;;;;10.80;100.00;98669.53;5050612;28;19956;-63
2023/10/27 12:48:10;;;;;;;;;;;;;;;10.80;100.00;98671.34;5049608;28;20020;-64
2023/10/27 12:50:37;;;;;;;;;;;;;;;10.80;100.00;98669.53;5051230;28;20015;-64
2023/10/27 12:53:04;;;;;;;;;;;;;;;10.79;100.00;98674.97;5052667;28;19921;-63
2023/10/27 12:55:31;;;;;;;;;;;;;;;10.86;100.00;98676.06;5052895;28;19960;-64
2023/10/27 12:58:08;;;;;;;;;;;;;;;10.86;100.00;98671.63;5034250;28;19928;-63
2023/10/27 13:00:35;;;;;;;;;;;;;;;10.90;100.00;98672.19;5052484;28;19996;-64
2023/10/27 13:03:04;;;;;;;;;;;;;;;10.96;100.00;98669.00;5045348;28;19964;-63
2023/10/27 13:05:31;;;;;;;;;;;;;;;11.01;100.00;98664.13;5052595;28;20007;-62
2023/10/27 13:07:58;;;;;;;;;;;;;;;10.99;100.00;98668.72;5036229;28;19929;-64
2023/10/27 13:10:25;;;;;;;;;;;;;;;10.95;100.00;98666.50;5051458;28;19956;-64
2023/10/27 13:12:56;;;;;;;;;;;;;;;10.89;100.00;98668.72;5051290;28;20031;-65
2023/10/27 13:15:23;;;;;;;;;;;;;;;10.89;100.00;98670.50;5045426;28;19978;-63
2023/10/27 13:17:50;;;;;;;;;;;;;;;10.86;100.00;98671.63;5053081;28;20446;-64
2023/10/27 13:20:18;;;;;;;;;;;;;;;10.88;100.00;98669.69;5031236;28;19971;-63
2023/10/27 13:22:47;;;;;;;;;;;;;;;10.90;100.00;98672.19;5053608;28;19987;-63
2023/10/27 13:25:14;;;;;;;;;;;;;;;10.83;100.00;98674.53;5069115;28;19920;-63
2023/10/27 13:27:42;;;;;;;;;;;;;;;10.84;100.00;98672.75;5072518;28;19928;-64
2023/10/27 13:30:09;;;;;;;;;;;;;;;10.78;100.00;98673.31;5068021;28;19928;-63
2023/10/27 13:32:37;;;;;;;;;;;;;;;10.79;100.00;98674.97;5055263;28;19972;-63
2023/10/27 13:35:06;;;;;;;;;;;;;;;10.78;100.00;98679.41;5051339;28;19957;-64
2023/10/27 13:37:33;;;;;;;;;;;;;;;10.77;100.00;98682.19;5051354;28;19967;-63
2023/10/27 13:40:00;;;;;;;;;;;;;;;10.75;100.00;98682.28;5051871;28;19962;-63
2023/10/27 13:42:27;;;;;;;;;;;;;;;10.73;100.00;98676.34;5052815;28;19925;-65
2023/10/27 13:44:55;;;;;;;;;;;;;;;10.70;100.00;98681.88;5051179;28;20325;-62
2023/10/27 13:47:25;;;;;;;;;;;;;;;10.70;100.00;98684.50;5053333;28;19924;-62